createdAt,value
2018-03-29T00:02:17.345Z,52.20
2018-03-29T00:04:44.578Z,49.33
2018-03-29T00:07:11.861Z,53.30
2018-03-29T00:09:38.826Z,53.10
2018-03-29T00:12:12.440Z,51.70
2018-03-29T00:14:39.528Z,49.03
2018-03-29T00:17:06.870Z,51.03
2018-03-29T00:19:34.075Z,52.37
2018-03-29T00:22:02.262Z,47.97
2018-03-29T00:24:29.501Z,51.23
2018-03-29T00:26:56.678Z,55.53
2018-03-29T00:29:23.966Z,49.40
2018-03-29T00:31:52.433Z,51.23
2018-03-29T00:34:19.711Z,50.37
2018-03-29T00:36:46.910Z,54.83
2018-03-29T00:39:14.209Z,50.50
2018-03-29T00:41:41.368Z,50.60
2018-03-29T00:44:08.693Z,53.37
2018-03-29T00:46:36.414Z,53.97
2018-03-29T00:49:03.710Z,59.13
2018-03-29T00:51:30.905Z,58.53
2018-03-29T00:53:57.968Z,55.90
2018-03-29T00:56:25.152Z,53.10
2018-03-29T00:58:52.353Z,51.77
2018-03-29T01:01:19.421Z,48.77
2018-03-29T01:03:50.457Z,49.60
2018-03-29T01:06:17.613Z,51.50
2018-03-29T01:08:44.862Z,51.53
2018-03-29T01:11:12.054Z,53.13
2018-03-29T01:13:40.512Z,59.50
2018-03-29T01:16:07.725Z,54.40
2018-03-29T01:18:34.957Z,50.80
2018-03-29T01:21:02.128Z,53.87
2018-03-29T01:23:32.641Z,59.43
2018-03-29T01:25:59.784Z,53.60
2018-03-29T01:28:26.982Z,52.43
2018-03-29T01:30:54.118Z,52.00
2018-03-29T01:33:22.497Z,58.17
2018-03-29T01:35:49.753Z,53.63
2018-03-29T01:38:16.965Z,57.43
2018-03-29T01:40:44.035Z,50.40
2018-03-29T01:43:12.498Z,52.40
2018-03-29T01:45:39.669Z,46.47
2018-03-29T01:48:06.799Z,53.27
2018-03-29T01:50:33.967Z,53.87
2018-03-29T01:53:04.932Z,54.63
2018-03-29T01:55:32.190Z,56.40
2018-03-29T01:57:59.399Z,54.27
2018-03-29T02:00:26.593Z,52.93
2018-03-29T02:02:58.385Z,51.77
2018-03-29T02:05:25.669Z,55.13
2018-03-29T02:07:52.926Z,55.43
2018-03-29T02:10:20.158Z,51.87
2018-03-29T02:12:51.326Z,56.67
2018-03-29T02:15:18.553Z,61.00
2018-03-29T02:17:45.743Z,55.83
2018-03-29T02:20:13.202Z,58.13
2018-03-29T02:22:43.741Z,54.63
2018-03-29T02:25:11.037Z,54.40
2018-03-29T02:27:38.251Z,49.80
2018-03-29T02:30:05.388Z,50.10
2018-03-29T02:32:32.657Z,51.13
2018-03-29T02:34:59.987Z,51.33
2018-03-29T02:37:27.049Z,56.00
2018-03-29T02:39:54.332Z,54.00
2018-03-29T02:42:22.913Z,52.93
2018-03-29T02:44:50.134Z,60.00
2018-03-29T02:47:17.254Z,60.93
2018-03-29T02:49:44.517Z,52.00
2018-03-29T02:52:12.862Z,50.63
2018-03-29T02:54:40.131Z,50.40
2018-03-29T02:57:07.440Z,54.33
2018-03-29T02:59:34.556Z,48.30
2018-03-29T03:02:01.832Z,52.03
2018-03-29T03:04:29.076Z,48.97
2018-03-29T03:06:56.258Z,52.80
2018-03-29T03:09:24.252Z,53.20
2018-03-29T03:11:54.539Z,54.53
2018-03-29T03:14:21.885Z,49.97
2018-03-29T03:16:49.209Z,53.03
2018-03-29T03:19:16.485Z,52.43
2018-03-29T03:21:46.665Z,53.90
2018-03-29T03:24:13.779Z,55.27
2018-03-29T03:26:40.980Z,54.00
2018-03-29T03:29:08.284Z,53.50
2018-03-29T03:31:35.706Z,56.20
2018-03-29T03:34:02.846Z,48.67
2018-03-29T03:36:30.079Z,56.00
2018-03-29T03:38:57.322Z,53.57
2018-03-29T03:41:25.750Z,54.10
2018-03-29T03:43:52.936Z,55.73
2018-03-29T03:46:20.213Z,51.80
2018-03-29T03:48:47.486Z,52.83
2018-03-29T03:51:15.776Z,41.07
2018-03-29T03:53:42.956Z,54.27
2018-03-29T03:56:10.157Z,56.07
2018-03-29T03:58:37.295Z,52.90
2018-03-29T04:01:04.493Z,50.10
2018-03-29T04:03:31.790Z,56.83
2018-03-29T04:05:59.108Z,53.93
2018-03-29T04:08:26.310Z,57.73
2018-03-29T04:10:53.539Z,51.83
2018-03-29T04:13:22.986Z,59.60
2018-03-29T04:15:50.157Z,60.23
2018-03-29T04:18:17.453Z,65.83
2018-03-29T04:20:44.570Z,58.93
2018-03-29T04:23:12.779Z,57.20
2018-03-29T04:25:40.093Z,59.40
2018-03-29T04:28:07.301Z,52.57
2018-03-29T04:30:35.160Z,49.97
2018-03-29T04:33:02.511Z,48.33
2018-03-29T04:35:29.670Z,55.60
2018-03-29T04:37:56.933Z,54.27
2018-03-29T04:40:24.145Z,49.77
2018-03-29T04:42:52.549Z,46.83
2018-03-29T04:45:19.770Z,47.13
2018-03-29T04:47:47.594Z,48.97
2018-03-29T04:50:14.758Z,50.53
2018-03-29T04:52:42.034Z,51.07
2018-03-29T04:55:09.262Z,53.67
2018-03-29T04:57:36.508Z,51.70
2018-03-29T05:00:03.601Z,48.57
2018-03-29T05:02:30.758Z,53.93
2018-03-29T05:04:58.243Z,54.13
2018-03-29T05:07:25.601Z,52.20
2018-03-29T05:09:52.773Z,51.77
2018-03-29T05:12:20.158Z,51.23
2018-03-29T05:14:47.373Z,52.93
2018-03-29T05:17:15.489Z,52.93
2018-03-29T05:19:43.285Z,51.10
2018-03-29T05:22:13.821Z,61.60
2018-03-29T05:24:41.072Z,49.57
2018-03-29T05:27:14.514Z,51.83
2018-03-29T05:29:41.779Z,59.97
2018-03-29T05:32:13.592Z,61.27
2018-03-29T05:34:40.897Z,59.00
2018-03-29T05:39:57.822Z,62.33
2018-03-29T05:42:28.847Z,53.63
2018-03-29T05:44:56.029Z,48.40
2018-03-29T05:47:23.970Z,52.50
2018-03-29T05:49:51.269Z,48.57
2018-03-29T05:52:19.527Z,49.10
2018-03-29T05:54:48.178Z,52.93
2018-03-29T05:57:16.050Z,46.87
2018-03-29T05:59:43.542Z,52.03
2018-03-29T06:02:11.723Z,49.10
2018-03-29T06:04:38.938Z,44.23
2018-03-29T06:07:05.905Z,42.93
2018-03-29T06:09:33.110Z,43.97
2018-03-29T06:12:01.394Z,41.83
2018-03-29T06:14:35.166Z,41.67
2018-03-29T06:17:02.486Z,46.17
2018-03-29T06:19:29.597Z,45.87
2018-03-29T06:21:56.923Z,45.40
2018-03-29T06:24:24.186Z,50.10
2018-03-29T06:26:51.378Z,46.90
2018-03-29T06:29:18.593Z,45.87
2018-03-29T06:31:49.575Z,45.93
2018-03-29T06:34:17.538Z,45.53
2018-03-29T06:36:44.702Z,40.00
2018-03-29T06:39:12.046Z,43.97
2018-03-29T06:41:43.746Z,45.30
2018-03-29T06:44:11.426Z,42.43
2018-03-29T06:46:39.575Z,41.87
2018-03-29T06:49:06.858Z,42.47
2018-03-29T06:51:34.364Z,40.50
2018-03-29T06:54:01.605Z,43.73
2018-03-29T06:56:28.774Z,46.17
2018-03-29T06:58:55.986Z,46.57
2018-03-29T07:01:26.087Z,42.57
2018-03-29T07:03:53.330Z,42.10
2018-03-29T07:06:20.644Z,43.73
2018-03-29T07:08:47.800Z,48.27
2018-03-29T07:11:19.312Z,43.70
2018-03-29T07:13:46.471Z,41.63
2018-03-29T07:16:13.763Z,45.93
2018-03-29T07:18:40.894Z,41.70
2018-03-29T07:21:13.967Z,46.50
2018-03-29T07:23:41.302Z,35.33
2018-03-29T07:26:08.589Z,38.07
2018-03-29T07:28:35.779Z,41.47
2018-03-29T07:31:03.117Z,43.67
2018-03-29T07:33:30.375Z,34.77
2018-03-29T07:35:57.585Z,35.03
2018-03-29T07:38:24.777Z,40.07
2018-03-29T07:40:54.973Z,40.70
2018-03-29T07:43:22.160Z,37.77
2018-03-29T07:45:50.178Z,35.10
2018-03-29T07:48:18.153Z,35.03
2018-03-29T07:50:48.946Z,36.23
2018-03-29T07:53:16.251Z,33.37
2018-03-29T07:55:43.241Z,33.97
2018-03-29T07:58:10.427Z,32.20
2018-03-29T08:00:41.066Z,34.93
2018-03-29T08:03:08.244Z,29.40
2018-03-29T08:05:35.348Z,28.17
2018-03-29T08:08:02.541Z,29.33
2018-03-29T08:10:33.982Z,31.67
2018-03-29T08:13:01.267Z,28.53
2018-03-29T08:15:28.946Z,27.03
2018-03-29T08:17:56.106Z,29.47
2018-03-29T08:20:24.486Z,31.97
2018-03-29T08:22:51.665Z,28.07
2018-03-29T08:25:18.806Z,34.60
2018-03-29T08:27:46.066Z,30.50
2018-03-29T08:30:13.386Z,29.43
2018-03-29T08:32:41.882Z,28.77
2018-03-29T08:35:09.085Z,32.00
2018-03-29T08:37:36.199Z,30.00
2018-03-29T08:40:03.610Z,29.00
2018-03-29T08:42:32.411Z,26.67
2018-03-29T08:44:59.665Z,31.03
2018-03-29T08:47:26.997Z,28.77
2018-03-29T08:49:54.296Z,30.63
2018-03-29T08:52:23.029Z,30.30
2018-03-29T08:54:50.350Z,25.00
2018-03-29T08:57:18.154Z,23.90
2018-03-29T08:59:45.495Z,23.67
2018-03-29T09:02:19.369Z,28.73
2018-03-29T09:04:47.229Z,25.00
2018-03-29T09:07:14.533Z,24.83
2018-03-29T09:09:41.852Z,25.93
2018-03-29T09:12:10.162Z,20.60
2018-03-29T09:14:37.333Z,22.77
2018-03-29T09:17:04.549Z,16.57
2018-03-29T09:19:31.709Z,21.20
2018-03-29T09:22:02.029Z,22.30
2018-03-29T09:24:29.234Z,20.47
2018-03-29T09:26:56.932Z,20.33
2018-03-29T09:29:24.689Z,22.53
2018-03-29T09:31:57.969Z,24.83
2018-03-29T09:34:25.283Z,21.43
2018-03-29T09:36:52.417Z,25.90
2018-03-29T09:39:19.718Z,25.00
2018-03-29T09:41:50.185Z,20.50
2018-03-29T09:44:17.466Z,22.17
2018-03-29T09:46:44.694Z,21.03
2018-03-29T09:49:12.469Z,22.07
2018-03-29T09:51:43.541Z,23.53
2018-03-29T09:54:10.825Z,19.93
2018-03-29T09:56:37.870Z,20.63
2018-03-29T09:59:05.087Z,21.27
2018-03-29T10:01:35.498Z,20.80
2018-03-29T10:04:08.701Z,26.20
2018-03-29T10:06:41.087Z,19.00
2018-03-29T10:09:08.215Z,20.90
2018-03-29T10:11:41.553Z,23.67
2018-03-29T10:14:08.976Z,21.63
2018-03-29T10:16:36.102Z,18.30
2018-03-29T10:19:03.303Z,28.00
2018-03-29T10:21:34.063Z,29.47
2018-03-29T10:24:01.158Z,23.40
2018-03-29T10:26:28.343Z,23.87
2018-03-29T10:28:55.682Z,22.40
2018-03-29T10:31:23.081Z,18.57
2018-03-29T10:33:50.217Z,17.47
2018-03-29T10:36:17.319Z,18.00
2018-03-29T10:38:44.593Z,30.17
2018-03-29T10:41:12.889Z,18.80
2018-03-29T10:43:40.104Z,21.00
2018-03-29T10:46:07.914Z,18.80
2018-03-29T10:48:35.190Z,19.90
2018-03-29T10:51:06.989Z,18.00
2018-03-29T10:53:34.173Z,19.80
2018-03-29T10:56:01.309Z,16.90
2018-03-29T10:58:29.088Z,16.00
2018-03-29T11:00:57.341Z,23.23
2018-03-29T11:03:24.660Z,13.47
2018-03-29T11:05:52.257Z,20.30
2018-03-29T11:08:20.157Z,17.27
2018-03-29T11:10:50.362Z,15.77
2018-03-29T11:13:17.561Z,17.77
2018-03-29T11:15:44.724Z,14.83
2018-03-29T11:18:11.942Z,19.77
2018-03-29T11:20:42.446Z,18.57
2018-03-29T11:23:09.633Z,21.70
2018-03-29T11:25:37.274Z,15.63
2018-03-29T11:28:04.425Z,19.80
2018-03-29T11:30:43.425Z,17.43
2018-03-29T11:33:10.672Z,18.87
2018-03-29T11:35:37.874Z,18.50
2018-03-29T11:38:05.058Z,19.93
2018-03-29T11:40:45.033Z,19.10
2018-03-29T11:43:12.082Z,15.03
2018-03-29T11:45:39.314Z,17.70
2018-03-29T11:48:06.530Z,16.40
2018-03-29T11:50:33.668Z,16.30
2018-03-29T11:53:00.743Z,19.77
2018-03-29T11:55:28.012Z,16.20
2018-03-29T11:57:55.274Z,15.40
2018-03-29T12:00:22.474Z,16.10
2018-03-29T12:02:49.765Z,17.77
2018-03-29T12:05:16.973Z,17.13
2018-03-29T12:07:44.362Z,15.87
2018-03-29T12:10:15.030Z,15.97
2018-03-29T12:12:42.501Z,15.47
2018-03-29T12:15:09.704Z,15.87
2018-03-29T12:17:37.248Z,15.80
2018-03-29T12:20:10.054Z,16.53
2018-03-29T12:22:37.381Z,16.03
2018-03-29T12:25:04.585Z,17.67
2018-03-29T12:27:32.129Z,16.93
2018-03-29T12:30:16.823Z,17.70
2018-03-29T12:32:43.886Z,18.87
2018-03-29T12:35:11.106Z,20.37
2018-03-29T12:37:38.345Z,17.20
2018-03-29T12:40:22.192Z,26.43
2018-03-29T12:42:49.510Z,17.83
2018-03-29T12:45:17.550Z,19.23
2018-03-29T12:47:44.733Z,21.40
2018-03-29T12:50:16.185Z,25.03
2018-03-29T12:52:43.425Z,28.90
2018-03-29T12:55:28.368Z,20.40
2018-03-29T12:58:10.019Z,17.33
2018-03-29T13:00:44.151Z,17.50
2018-03-29T13:03:11.375Z,18.77
2018-03-29T13:05:38.690Z,22.87
2018-03-29T13:08:05.946Z,86.47
2018-03-29T13:10:40.435Z,38.43
2018-03-29T13:13:07.578Z,36.33
2018-03-29T13:15:35.162Z,23.47
2018-03-29T13:18:02.332Z,31.50
2018-03-29T13:20:33.098Z,21.27
2018-03-29T13:23:01.484Z,17.17
2018-03-29T13:25:28.653Z,18.27
2018-03-29T13:27:55.862Z,52.33
2018-03-29T13:30:36.251Z,35.93
2018-03-29T13:33:03.566Z,36.67
2018-03-29T13:35:30.715Z,16.50
2018-03-29T13:37:58.223Z,18.80
2018-03-29T13:40:28.881Z,15.90
2018-03-29T13:42:56.062Z,19.10
2018-03-29T13:45:23.320Z,18.03
2018-03-29T13:47:50.978Z,23.97
2018-03-29T13:50:42.191Z,25.27
2018-03-29T13:53:09.470Z,22.43
2018-03-29T13:55:36.560Z,22.90
2018-03-29T13:58:03.754Z,22.17
2018-03-29T14:00:30.954Z,25.77
2018-03-29T14:02:58.124Z,17.17
2018-03-29T14:05:25.493Z,33.87
2018-03-29T14:07:52.766Z,36.73
2018-03-29T14:10:32.058Z,29.00
2018-03-29T14:12:59.595Z,31.07
2018-03-29T14:15:26.854Z,35.53
2018-03-29T14:17:54.229Z,35.13
2018-03-29T14:20:24.556Z,36.23
2018-03-29T14:22:51.712Z,31.47
2018-03-29T14:25:18.937Z,31.00
2018-03-29T14:27:46.256Z,27.40
2018-03-29T14:30:17.197Z,32.93
2018-03-29T14:32:44.550Z,43.23
2018-03-29T14:35:11.840Z,41.53
2018-03-29T14:37:39.024Z,46.33
2018-03-29T14:40:10.515Z,47.00
2018-03-29T14:42:37.545Z,51.57
2018-03-29T14:45:04.726Z,54.93
2018-03-29T14:47:32.050Z,51.53
2018-03-29T14:50:23.134Z,46.40
2018-03-29T14:52:50.389Z,54.67
2018-03-29T14:55:18.381Z,44.10
2018-03-29T14:57:46.433Z,44.67
2018-03-29T15:00:18.138Z,53.90
2018-03-29T15:02:45.947Z,54.17
2018-03-29T15:05:13.009Z,47.80
2018-03-29T15:07:41.118Z,50.53
2018-03-29T15:10:14.455Z,49.53
2018-03-29T15:12:41.607Z,56.90
2018-03-29T15:15:08.926Z,52.60
2018-03-29T15:17:36.282Z,54.20
2018-03-29T15:20:11.682Z,55.33
2018-03-29T15:22:38.949Z,61.07
2018-03-29T15:25:06.127Z,60.80
2018-03-29T15:27:33.319Z,61.80
2018-03-29T15:30:00.720Z,59.47
2018-03-29T15:32:27.808Z,57.63
2018-03-29T15:34:56.588Z,58.37
2018-03-29T15:37:23.974Z,71.23
2018-03-29T15:39:57.719Z,65.37
2018-03-29T15:42:25.011Z,63.33
2018-03-29T15:44:52.169Z,66.97
2018-03-29T15:47:19.426Z,62.63
2018-03-29T15:49:50.474Z,120.67
2018-03-29T15:52:17.839Z,105.73
2018-03-29T15:54:45.068Z,80.43
2018-03-29T15:57:12.276Z,95.77
2018-03-29T15:59:45.626Z,107.30
2018-03-29T16:02:12.963Z,88.30
2018-03-29T16:04:40.246Z,88.33
2018-03-29T16:07:08.457Z,85.83
2018-03-29T16:09:39.274Z,100.70
2018-03-29T16:12:07.260Z,99.57
2018-03-29T16:14:34.541Z,105.03
2018-03-29T16:17:01.642Z,126.40
2018-03-29T16:19:32.279Z,105.73
2018-03-29T16:21:59.529Z,92.03
2018-03-29T16:24:26.805Z,74.23
2018-03-29T16:26:54.599Z,73.87
2018-03-29T16:29:25.429Z,113.37
2018-03-29T16:31:52.602Z,75.03
2018-03-29T16:34:20.574Z,92.23
2018-03-29T16:36:48.659Z,96.43
2018-03-29T16:39:15.843Z,85.23
2018-03-29T16:41:42.956Z,95.37
2018-03-29T16:44:10.809Z,93.17
2018-03-29T16:46:38.126Z,88.47
2018-03-29T16:49:05.380Z,83.53
2018-03-29T16:51:32.545Z,72.70
2018-03-29T16:53:59.825Z,76.63
2018-03-29T16:56:27.173Z,92.90
2018-03-29T16:58:54.243Z,80.83
2018-03-29T17:01:22.339Z,81.70
2018-03-29T17:03:49.540Z,90.77
2018-03-29T17:06:16.795Z,87.07
2018-03-29T17:08:45.119Z,78.40
2018-03-29T17:11:15.730Z,86.73
2018-03-29T17:13:43.041Z,91.77
2018-03-29T17:16:11.945Z,83.43
2018-03-29T17:18:39.139Z,89.33
2018-03-29T17:21:07.520Z,82.47
2018-03-29T17:23:34.890Z,82.27
2018-03-29T17:26:01.954Z,78.07
2018-03-29T17:28:29.241Z,81.77
2018-03-29T17:30:56.518Z,93.27
2018-03-29T17:33:24.021Z,84.07
2018-03-29T17:35:51.288Z,92.50
2018-03-29T17:38:18.704Z,106.07
2018-03-29T17:40:49.615Z,96.07
2018-03-29T17:43:17.011Z,95.20
2018-03-29T17:45:45.100Z,100.33
2018-03-29T17:48:12.408Z,81.47
2018-03-29T17:50:44.160Z,95.03
2018-03-29T17:53:13.858Z,80.03
2018-03-29T17:55:42.700Z,86.50
2018-03-29T17:58:09.903Z,95.60
2018-03-29T18:00:38.264Z,85.70
2018-03-29T18:03:05.540Z,87.17
2018-03-29T18:05:32.575Z,94.63
2018-03-29T18:07:59.751Z,92.83
2018-03-29T18:10:30.138Z,97.37
2018-03-29T18:12:58.207Z,113.13
2018-03-29T18:15:25.451Z,87.90
2018-03-29T18:17:54.649Z,85.50
2018-03-29T18:20:26.093Z,108.40
2018-03-29T18:22:54.615Z,89.37
2018-03-29T18:25:22.878Z,87.10
2018-03-29T18:27:50.177Z,83.90
2018-03-29T18:30:21.035Z,80.23
2018-03-29T18:32:48.149Z,85.27
2018-03-29T18:35:16.690Z,85.93
2018-03-29T18:37:44.659Z,90.03
2018-03-29T18:40:16.223Z,127.90
2018-03-29T18:42:43.353Z,77.13
2018-03-29T18:45:10.659Z,89.73
2018-03-29T18:47:37.885Z,79.70
2018-03-29T18:50:11.220Z,75.83
2018-03-29T18:52:38.380Z,78.97
2018-03-29T18:55:06.060Z,94.10
2018-03-29T18:57:33.336Z,242.97
2018-03-29T19:00:01.691Z,87.83
2018-03-29T19:02:29.019Z,90.87
2018-03-29T19:04:56.228Z,116.20
2018-03-29T19:07:23.530Z,81.73
2018-03-29T19:09:51.453Z,95.07
2018-03-29T19:12:18.767Z,114.90
2018-03-29T19:14:46.054Z,88.27
2018-03-29T19:17:13.148Z,79.60
2018-03-29T19:19:43.503Z,84.90
2018-03-29T19:22:11.732Z,72.20
2018-03-29T19:24:39.549Z,71.80
2018-03-29T19:27:06.814Z,72.53
2018-03-29T19:29:35.972Z,90.27
2018-03-29T19:32:03.175Z,81.67
2018-03-29T19:34:31.233Z,90.07
2018-03-29T19:36:58.948Z,83.70
2018-03-29T19:39:26.383Z,84.20
2018-03-29T19:44:46.295Z,96.12
2018-03-29T19:47:13.647Z,75.17
2018-03-29T19:49:44.106Z,91.53
2018-03-29T19:52:11.919Z,81.93
2018-03-29T19:54:39.307Z,80.67
2018-03-29T19:57:06.665Z,80.80
2018-03-29T19:59:37.634Z,81.80
2018-03-29T20:02:04.914Z,129.23
2018-03-29T20:04:32.210Z,72.57
2018-03-29T20:07:00.250Z,67.07
2018-03-29T20:09:33.501Z,69.77
2018-03-29T20:12:00.782Z,71.50
2018-03-29T20:14:27.924Z,76.60
2018-03-29T20:16:55.143Z,76.10
2018-03-29T20:19:23.651Z,99.27
2018-03-29T20:21:50.969Z,88.23
2018-03-29T20:24:19.145Z,75.87
2018-03-29T20:26:46.502Z,87.63
2018-03-29T20:29:13.886Z,83.03
2018-03-29T20:31:41.150Z,83.17
2018-03-29T20:34:08.447Z,95.83
2018-03-29T20:36:35.697Z,90.00
2018-03-29T20:39:07.141Z,87.80
2018-03-29T20:41:34.347Z,98.27
2018-03-29T20:44:01.586Z,129.33
2018-03-29T20:46:28.898Z,98.27
2018-03-29T20:49:00.864Z,72.97
2018-03-29T20:51:28.128Z,70.40
2018-03-29T20:53:55.454Z,90.03
2018-03-29T20:56:22.832Z,200.53
2018-03-29T20:58:54.834Z,97.97
2018-03-29T21:01:22.138Z,96.97
2018-03-29T21:03:49.506Z,95.00
2018-03-29T21:06:16.601Z,144.40
2018-03-29T21:08:44.932Z,91.27
2018-03-29T21:11:12.175Z,74.30
2018-03-29T21:13:39.389Z,84.20
2018-03-29T21:16:06.706Z,81.07
2018-03-29T21:18:33.935Z,80.13
2018-03-29T21:21:01.093Z,130.17
2018-03-29T21:23:28.374Z,74.83
2018-03-29T21:25:55.524Z,104.07
2018-03-29T21:28:22.833Z,92.53
2018-03-29T21:30:50.060Z,87.93
2018-03-29T21:33:17.255Z,68.17
2018-03-29T21:35:45.384Z,61.00
2018-03-29T21:38:12.589Z,86.67
2018-03-29T21:40:39.925Z,72.30
2018-03-29T21:43:07.280Z,96.67
2018-03-29T21:45:35.053Z,99.40
2018-03-29T21:48:02.414Z,78.03
2018-03-29T21:50:33.474Z,74.23
2018-03-29T21:53:00.808Z,65.63
2018-03-29T21:55:28.002Z,106.20
2018-03-29T21:57:55.448Z,76.23
2018-03-29T22:00:22.534Z,60.00
2018-03-29T22:02:49.999Z,57.43
2018-03-29T22:05:17.112Z,61.97
2018-03-29T22:07:44.313Z,59.43
2018-03-29T22:10:12.566Z,60.63
2018-03-29T22:12:39.821Z,58.37
2018-03-29T22:15:06.762Z,51.03
2018-03-29T22:17:34.038Z,56.97
2018-03-29T22:20:02.449Z,53.30
2018-03-29T22:22:29.639Z,54.87
2018-03-29T22:24:56.861Z,51.77
2018-03-29T22:27:24.130Z,57.33
2018-03-29T22:29:51.216Z,55.13
2018-03-29T22:32:18.524Z,56.13
2018-03-29T22:34:45.716Z,53.53
2018-03-29T22:37:13.113Z,55.97
2018-03-29T22:39:41.449Z,50.80
2018-03-29T22:42:08.688Z,62.23
2018-03-29T22:44:36.030Z,57.03
2018-03-29T22:47:03.265Z,55.90
2018-03-29T22:49:41.269Z,56.83
2018-03-29T22:52:08.304Z,50.40
2018-03-29T22:54:35.426Z,51.77
2018-03-29T22:57:02.738Z,52.30
2018-03-29T22:59:31.093Z,55.00
2018-03-29T23:01:58.342Z,50.80
2018-03-29T23:04:25.561Z,50.67
2018-03-29T23:06:52.842Z,51.80
2018-03-29T23:09:20.301Z,51.27
2018-03-29T23:11:47.465Z,47.63
2018-03-29T23:14:14.569Z,49.87
2018-03-29T23:16:41.877Z,48.37
2018-03-29T23:19:10.476Z,44.23
2018-03-29T23:21:43.593Z,41.60
2018-03-29T23:24:10.624Z,46.67
2018-03-29T23:26:37.667Z,41.10
2018-03-29T23:29:04.969Z,42.27
2018-03-29T23:31:32.128Z,48.40
2018-03-29T23:33:59.333Z,45.23
2018-03-29T23:36:26.501Z,42.13
2018-03-29T23:38:53.751Z,42.37
2018-03-29T23:41:20.949Z,42.23
2018-03-29T23:43:48.921Z,41.60
2018-03-29T23:46:16.821Z,44.33
2018-03-29T23:48:45.361Z,43.97
2018-03-29T23:51:12.543Z,39.27
2018-03-29T23:53:39.705Z,39.73
2018-03-29T23:56:06.985Z,35.33
2018-03-29T23:58:36.098Z,38.67
